sensor_id;sensor_type;location;lat;lon;timestamp;pressure;altitude;pressure_sealevel;temperature;humidity
52105;BME280;38103;42.776;23.112;2022-11-24T00:02:21;92906.28;;;3.30;100.00
52105;BME280;38103;42.776;23.112;2022-11-24T00:04:47;92906.97;;;3.44;100.00
52105;BME280;38103;42.776;23.112;2022-11-24T00:07:12;92880.03;;;3.44;100.00
52105;BME280;38103;42.776;23.112;2022-11-24T00:09:38;92902.56;;;3.83;100.00
52105;BME280;38103;42.776;23.112;2022-11-24T00:12:03;92909.75;;;3.87;100.00
52105;BME280;38103;42.776;23.112;2022-11-24T00:14:28;92906.69;;;3.90;100.00
52105;BME280;38103;42.776;23.112;2022-11-24T00:16:54;92906.84;;;3.96;100.00
52105;BME280;38103;42.776;23.112;2022-11-24T00:19:19;92911.22;;;4.02;100.00
52105;BME280;38103;42.776;23.112;2022-11-24T00:21:44;92910.75;;;4.05;100.00
52105;BME280;38103;42.776;23.112;2022-11-24T00:24:10;92905.31;;;4.07;100.00
52105;BME280;38103;42.776;23.112;2022-11-24T00:26:36;92894.00;;;3.94;100.00
52105;BME280;38103;42.776;23.112;2022-11-24T00:29:04;92909.59;;;3.82;100.00
52105;BME280;38103;42.776;23.112;2022-11-24T00:31:36;92917.72;;;3.74;100.00
52105;BME280;38103;42.776;23.112;2022-11-24T00:34:11;92908.09;;;3.55;100.00
52105;BME280;38103;42.776;23.112;2022-11-24T00:36:38;92910.59;;;3.43;100.00
52105;BME280;38103;42.776;23.112;2022-11-24T00:39:05;92906.53;;;3.48;100.00
52105;BME280;38103;42.776;23.112;2022-11-24T00:41:31;92902.25;;;3.53;100.00
52105;BME280;38103;42.776;23.112;2022-11-24T00:43:58;92905.66;;;3.54;100.00
52105;BME280;38103;42.776;23.112;2022-11-24T00:46:24;92906.53;;;3.48;100.00
52105;BME280;38103;42.776;23.112;2022-11-24T00:48:50;92912.19;;;3.44;100.00
52105;BME280;38103;42.776;23.112;2022-11-24T00:51:16;92907.28;;;3.55;100.00
52105;BME280;38103;42.776;23.112;2022-11-24T00:53:42;92908.31;;;3.73;100.00
52105;BME280;38103;42.776;23.112;2022-11-24T00:56:09;92925.09;;;3.84;100.00
52105;BME280;38103;42.776;23.112;2022-11-24T00:58:35;92931.00;;;4.10;100.00
52105;BME280;38103;42.776;23.112;2022-11-24T01:01:06;92937.03;;;4.29;100.00
52105;BME280;38103;42.776;23.112;2022-11-24T01:03:33;92926.41;;;4.43;100.00
52105;BME280;38103;42.776;23.112;2022-11-24T01:06:06;92931.91;;;4.53;100.00
52105;BME280;38103;42.776;23.112;2022-11-24T01:08:32;92937.97;;;4.66;100.00
52105;BME280;38103;42.776;23.112;2022-11-24T01:13:40;92931.13;;;4.65;100.00
52105;BME280;38103;42.776;23.112;2022-11-24T01:16:16;92930.81;;;4.73;100.00
52105;BME280;38103;42.776;23.112;2022-11-24T01:18:42;92901.19;;;4.30;100.00
52105;BME280;38103;42.776;23.112;2022-11-24T01:21:07;92934.28;;;4.24;100.00
52105;BME280;38103;42.776;23.112;2022-11-24T01:23:32;92933.41;;;4.30;100.00
52105;BME280;38103;42.776;23.112;2022-11-24T01:25:58;92933.84;;;4.27;100.00
52105;BME280;38103;42.776;23.112;2022-11-24T01:28:23;92937.31;;;4.40;100.00
52105;BME280;38103;42.776;23.112;2022-11-24T01:31:00;92920.53;;;4.60;100.00
52105;BME280;38103;42.776;23.112;2022-11-24T01:33:25;92873.38;;;4.47;100.00
52105;BME280;38103;42.776;23.112;2022-11-24T01:35:51;92923.13;;;4.90;100.00
52105;BME280;38103;42.776;23.112;2022-11-24T01:38:16;92878.91;;;4.70;100.00
52105;BME280;38103;42.776;23.112;2022-11-24T01:40:41;92926.78;;;5.01;100.00
52105;BME280;38103;42.776;23.112;2022-11-24T01:43:19;92928.59;;;5.13;100.00
52105;BME280;38103;42.776;23.112;2022-11-24T01:45:45;92926.09;;;5.18;100.00
52105;BME280;38103;42.776;23.112;2022-11-24T01:48:20;92927.28;;;5.22;100.00
52105;BME280;38103;42.776;23.112;2022-11-24T01:50:51;92924.53;;;5.29;100.00
52105;BME280;38103;42.776;23.112;2022-11-24T01:53:20;92897.16;;;5.13;100.00
52105;BME280;38103;42.776;23.112;2022-11-24T01:55:48;92927.06;;;5.36;100.00
52105;BME280;38103;42.776;23.112;2022-11-24T01:58:21;92930.25;;;5.38;100.00
52105;BME280;38103;42.776;23.112;2022-11-24T02:00:48;92930.25;;;5.38;100.00
52105;BME280;38103;42.776;23.112;2022-11-24T02:03:17;92929.88;;;5.46;100.00
52105;BME280;38103;42.776;23.112;2022-11-24T02:05:58;92936.84;;;5.53;100.00
52105;BME280;38103;42.776;23.112;2022-11-24T02:11:11;92934.59;;;5.56;100.00
52105;BME280;38103;42.776;23.112;2022-11-24T02:13:38;92936.16;;;5.57;100.00
52105;BME280;38103;42.776;23.112;2022-11-24T02:16:07;92929.88;;;5.46;100.00
52105;BME280;38103;42.776;23.112;2022-11-24T02:18:36;92943.09;;;5.16;100.00
52105;BME280;38103;42.776;23.112;2022-11-24T02:21:03;92938.28;;;5.00;100.00
52105;BME280;38103;42.776;23.112;2022-11-24T02:23:37;92937.13;;;4.96;100.00
52105;BME280;38103;42.776;23.112;2022-11-24T02:28:44;92938.53;;;5.11;100.00
52105;BME280;38103;42.776;23.112;2022-11-24T02:31:10;92929.84;;;5.10;100.00
52105;BME280;38103;42.776;23.112;2022-11-24T02:33:35;92942.78;;;5.36;100.00
52105;BME280;38103;42.776;23.112;2022-11-24T02:36:01;92941.63;;;5.32;100.00
52105;BME280;38103;42.776;23.112;2022-11-24T02:38:34;92939.09;;;5.13;100.00
52105;BME280;38103;42.776;23.112;2022-11-24T02:41:04;92940.44;;;5.03;100.00
52105;BME280;38103;42.776;23.112;2022-11-24T02:43:34;92940.44;;;5.03;100.00
52105;BME280;38103;42.776;23.112;2022-11-24T02:46:01;92945.06;;;5.20;100.00
52105;BME280;38103;42.776;23.112;2022-11-24T02:48:27;92946.19;;;5.36;100.00
52105;BME280;38103;42.776;23.112;2022-11-24T02:50:52;92945.28;;;5.55;100.00
52105;BME280;38103;42.776;23.112;2022-11-24T02:53:18;92951.44;;;5.73;100.00
52105;BME280;38103;42.776;23.112;2022-11-24T02:55:43;92949.72;;;5.78;100.00
52105;BME280;38103;42.776;23.112;2022-11-24T02:58:08;92955.53;;;5.80;100.00
52105;BME280;38103;42.776;23.112;2022-11-24T03:00:34;92953.38;;;5.77;100.00
52105;BME280;38103;42.776;23.112;2022-11-24T03:02:59;92952.13;;;5.56;100.00
52105;BME280;38103;42.776;23.112;2022-11-24T03:05:25;92951.00;;;5.64;100.00
52105;BME280;38103;42.776;23.112;2022-11-24T03:07:50;92945.72;;;5.52;100.00
52105;BME280;38103;42.776;23.112;2022-11-24T03:10:15;92911.75;;;5.09;100.00
52105;BME280;38103;42.776;23.112;2022-11-24T03:12:41;92948.03;;;5.36;100.00
52105;BME280;38103;42.776;23.112;2022-11-24T03:15:06;92947.47;;;5.58;100.00
52105;BME280;38103;42.776;23.112;2022-11-24T03:17:32;92953.03;;;5.74;100.00
52105;BME280;38103;42.776;23.112;2022-11-24T03:19:57;92961.25;;;5.65;100.00
52105;BME280;38103;42.776;23.112;2022-11-24T03:22:25;92948.81;;;5.61;100.00
52105;BME280;38103;42.776;23.112;2022-11-24T03:24:50;92955.09;;;5.72;100.00
52105;BME280;38103;42.776;23.112;2022-11-24T03:27:15;92961.94;;;5.73;100.00
52105;BME280;38103;42.776;23.112;2022-11-24T03:29:41;92958.16;;;5.92;100.00
52105;BME280;38103;42.776;23.112;2022-11-24T03:32:06;92970.22;;;6.06;100.00
52105;BME280;38103;42.776;23.112;2022-11-24T03:34:32;92970.81;;;5.96;100.00
52105;BME280;38103;42.776;23.112;2022-11-24T03:36:57;92969.00;;;6.08;100.00
52105;BME280;38103;42.776;23.112;2022-11-24T03:39:22;92962.81;;;6.14;100.00
52105;BME280;38103;42.776;23.112;2022-11-24T03:41:48;92970.13;;;6.12;100.00
52105;BME280;38103;42.776;23.112;2022-11-24T03:44:16;92973.78;;;6.11;100.00
52105;BME280;38103;42.776;23.112;2022-11-24T03:46:41;92969.19;;;6.19;100.00
52105;BME280;38103;42.776;23.112;2022-11-24T03:49:06;92968.75;;;6.22;100.00
52105;BME280;38103;42.776;23.112;2022-11-24T03:51:32;92975.59;;;6.23;100.00
52105;BME280;38103;42.776;23.112;2022-11-24T03:53:57;92979.25;;;6.22;100.00
52105;BME280;38103;42.776;23.112;2022-11-24T03:56:22;92980.41;;;6.26;100.00
52105;BME280;38103;42.776;23.112;2022-11-24T03:58:48;92977.88;;;6.31;100.00
52105;BME280;38103;42.776;23.112;2022-11-24T04:01:13;92990.50;;;6.34;100.00
52105;BME280;38103;42.776;23.112;2022-11-24T04:03:38;92993.03;;;6.41;100.00
52105;BME280;38103;42.776;23.112;2022-11-24T04:06:04;92993.34;;;6.45;100.00
52105;BME280;38103;42.776;23.112;2022-11-24T04:08:29;92983.19;;;6.48;100.00
52105;BME280;38103;42.776;23.112;2022-11-24T04:10:54;92999.25;;;6.52;100.00
52105;BME280;38103;42.776;23.112;2022-11-24T04:13:22;93005.66;;;6.56;99.80
52105;BME280;38103;42.776;23.112;2022-11-24T04:15:47;92979.19;;;6.46;99.88
52105;BME280;38103;42.776;23.112;2022-11-24T04:18:13;93002.25;;;6.44;100.00
52105;BME280;38103;42.776;23.112;2022-11-24T04:20:39;92999.44;;;6.33;100.00
52105;BME280;38103;42.776;23.112;2022-11-24T04:23:05;93002.16;;;6.26;100.00
52105;BME280;38103;42.776;23.112;2022-11-24T04:25:31;93000.00;;;6.35;100.00
52105;BME280;38103;42.776;23.112;2022-11-24T04:27:56;93009.44;;;6.48;100.00
52105;BME280;38103;42.776;23.112;2022-11-24T04:30:22;93007.50;;;6.44;100.00
52105;BME280;38103;42.776;23.112;2022-11-24T04:32:49;93005.66;;;6.56;100.00
52105;BME280;38103;42.776;23.112;2022-11-24T04:35:14;93001.72;;;6.71;99.32
52105;BME280;38103;42.776;23.112;2022-11-24T04:37:40;93006.06;;;6.77;99.30
52105;BME280;38103;42.776;23.112;2022-11-24T04:40:07;93002.56;;;6.89;98.82
52105;BME280;38103;42.776;23.112;2022-11-24T04:42:33;93013.97;;;6.95;98.60
52105;BME280;38103;42.776;23.112;2022-11-24T04:44:58;93010.88;;;6.98;98.43
52105;BME280;38103;42.776;23.112;2022-11-24T04:47:25;93018.06;;;7.02;98.88
52105;BME280;38103;42.776;23.112;2022-11-24T04:49:50;93008.81;;;7.00;98.17
52105;BME280;38103;42.776;23.112;2022-11-24T04:52:17;93020.69;;;7.02;98.19
52105;BME280;38103;42.776;23.112;2022-11-24T04:54:46;93017.41;;;6.95;98.12
52105;BME280;38103;42.776;23.112;2022-11-24T04:57:20;93033.34;;;6.76;99.01
52105;BME280;38103;42.776;23.112;2022-11-24T04:59:46;93029.84;;;6.58;99.68
52105;BME280;38103;42.776;23.112;2022-11-24T05:02:11;93034.91;;;6.48;99.44
52105;BME280;38103;42.776;23.112;2022-11-24T05:04:37;93045.41;;;6.48;99.39
52105;BME280;38103;42.776;23.112;2022-11-24T05:07:03;93045.28;;;6.43;99.94
52105;BME280;38103;42.776;23.112;2022-11-24T05:09:28;93039.94;;;6.37;100.00
52105;BME280;38103;42.776;23.112;2022-11-24T05:11:54;93045.06;;;6.32;100.00
52105;BME280;38103;42.776;23.112;2022-11-24T05:14:19;93052.16;;;6.32;100.00
52105;BME280;38103;42.776;23.112;2022-11-24T05:16:45;93053.53;;;6.46;100.00
52105;BME280;38103;42.776;23.112;2022-11-24T05:19:10;93057.16;;;6.45;100.00
52105;BME280;38103;42.776;23.112;2022-11-24T05:21:35;93060.84;;;6.08;100.00
52105;BME280;38103;42.776;23.112;2022-11-24T05:24:01;93057.66;;;6.18;100.00
52105;BME280;38103;42.776;23.112;2022-11-24T05:26:26;93059.59;;;6.23;100.00
52105;BME280;38103;42.776;23.112;2022-11-24T05:28:52;93061.38;;;6.34;100.00
52105;BME280;38103;42.776;23.112;2022-11-24T05:31:18;93067.78;;;6.39;100.00
52105;BME280;38103;42.776;23.112;2022-11-24T05:33:43;93075.09;;;6.48;100.00
52105;BME280;38103;42.776;23.112;2022-11-24T05:36:09;93072.78;;;6.52;100.00
52105;BME280;38103;42.776;23.112;2022-11-24T05:38:55;93070.06;;;6.59;100.00
52105;BME280;38103;42.776;23.112;2022-11-24T05:41:20;93078.25;;;6.63;100.00
52105;BME280;38103;42.776;23.112;2022-11-24T05:43:46;93073.59;;;6.65;100.00
52105;BME280;38103;42.776;23.112;2022-11-24T05:46:11;93076.53;;;6.68;100.00
52105;BME280;38103;42.776;23.112;2022-11-24T05:48:36;93082.59;;;6.69;100.00
52105;BME280;38103;42.776;23.112;2022-11-24T06:04:00;93093.22;;;7.62;96.18
52105;BME280;38103;42.776;23.112;2022-11-24T06:06:25;93095.59;;;7.46;95.72
52105;BME280;38103;42.776;23.112;2022-11-24T06:08:51;93096.03;;;7.14;96.88
52105;BME280;38103;42.776;23.112;2022-11-24T06:11:16;93100.09;;;7.04;97.02
52105;BME280;38103;42.776;23.112;2022-11-24T06:13:43;93079.91;;;6.81;97.86
52105;BME280;38103;42.776;23.112;2022-11-24T06:16:09;93104.47;;;6.87;98.08
52105;BME280;38103;42.776;23.112;2022-11-24T06:18:35;93103.25;;;6.65;98.87
52105;BME280;38103;42.776;23.112;2022-11-24T06:21:04;93109.75;;;6.63;99.62
52105;BME280;38103;42.776;23.112;2022-11-24T06:23:29;93109.88;;;6.68;99.76
52105;BME280;38103;42.776;23.112;2022-11-24T06:25:58;93100.66;;;6.53;100.00
52105;BME280;38103;42.776;23.112;2022-11-24T06:28:24;93117.00;;;6.43;100.00
52105;BME280;38103;42.776;23.112;2022-11-24T06:30:50;93131.69;;;6.44;100.00
52105;BME280;38103;42.776;23.112;2022-11-24T06:33:15;93133.06;;;6.47;100.00
52105;BME280;38103;42.776;23.112;2022-11-24T06:35:41;93133.06;;;6.47;100.00
52105;BME280;38103;42.776;23.112;2022-11-24T06:38:06;93142.44;;;6.43;100.00
52105;BME280;38103;42.776;23.112;2022-11-24T06:40:32;93152.38;;;6.41;100.00
52105;BME280;38103;42.776;23.112;2022-11-24T06:42:57;93155.44;;;6.37;100.00
52105;BME280;38103;42.776;23.112;2022-11-24T06:45:23;93156.13;;;6.21;100.00
52105;BME280;38103;42.776;23.112;2022-11-24T06:47:48;93147.06;;;6.04;100.00
52105;BME280;38103;42.776;23.112;2022-11-24T06:50:14;93166.44;;;5.91;100.00
52105;BME280;38103;42.776;23.112;2022-11-24T06:52:39;93172.22;;;5.69;100.00
52105;BME280;38103;42.776;23.112;2022-11-24T06:55:05;93177.97;;;5.59;100.00
52105;BME280;38103;42.776;23.112;2022-11-24T06:57:31;93185.41;;;5.44;100.00
52105;BME280;38103;42.776;23.112;2022-11-24T06:59:56;93187.19;;;5.31;100.00
52105;BME280;38103;42.776;23.112;2022-11-24T07:02:22;93135.84;;;4.92;100.00
52105;BME280;38103;42.776;23.112;2022-11-24T07:04:48;93179.78;;;5.09;100.00
52105;BME280;38103;42.776;23.112;2022-11-24T07:07:13;93142.25;;;4.78;100.00
52105;BME280;38103;42.776;23.112;2022-11-24T07:09:38;93191.66;;;4.93;100.00
52105;BME280;38103;42.776;23.112;2022-11-24T07:12:04;93194.41;;;4.98;100.00
52105;BME280;38103;42.776;23.112;2022-11-24T07:14:30;93198.50;;;4.94;100.00
52105;BME280;38103;42.776;23.112;2022-11-24T07:16:56;93215.38;;;4.98;100.00
52105;BME280;38103;42.776;23.112;2022-11-24T07:19:21;93210.28;;;5.03;100.00
52105;BME280;38103;42.776;23.112;2022-11-24T07:21:47;93209.72;;;5.01;100.00
52105;BME280;38103;42.776;23.112;2022-11-24T07:24:12;93217.84;;;4.93;100.00
52105;BME280;38103;42.776;23.112;2022-11-24T07:26:37;93222.78;;;4.83;100.00
52105;BME280;38103;42.776;23.112;2022-11-24T07:29:04;93229.91;;;4.75;100.00
52105;BME280;38103;42.776;23.112;2022-11-24T07:31:30;93224.91;;;4.74;100.00
52105;BME280;38103;42.776;23.112;2022-11-24T07:33:55;93232.09;;;4.78;100.00
52105;BME280;38103;42.776;23.112;2022-11-24T07:36:22;93232.53;;;4.75;100.00
52105;BME280;38103;42.776;23.112;2022-11-24T07:38:48;93237.38;;;4.72;100.00
52105;BME280;38103;42.776;23.112;2022-11-24T07:41:15;93237.88;;;4.62;100.00
52105;BME280;38103;42.776;23.112;2022-11-24T07:43:40;93240.72;;;4.60;100.00
52105;BME280;38103;42.776;23.112;2022-11-24T07:46:09;93257.06;;;4.55;100.00
52105;BME280;38103;42.776;23.112;2022-11-24T07:48:35;93255.31;;;4.49;100.00
52105;BME280;38103;42.776;23.112;2022-11-24T07:51:02;93241.72;;;4.33;100.00
52105;BME280;38103;42.776;23.112;2022-11-24T07:53:27;93209.50;;;4.07;100.00
52105;BME280;38103;42.776;23.112;2022-11-24T07:55:58;93265.03;;;4.42;100.00
52105;BME280;38103;42.776;23.112;2022-11-24T07:58:26;93263.41;;;4.41;100.00
52105;BME280;38103;42.776;23.112;2022-11-24T08:00:51;93265.88;;;4.35;100.00
52105;BME280;38103;42.776;23.112;2022-11-24T08:03:17;93273.13;;;4.33;100.00
52105;BME280;38103;42.776;23.112;2022-11-24T08:05:42;93276.66;;;4.46;100.00
52105;BME280;38103;42.776;23.112;2022-11-24T08:08:07;93242.19;;;4.30;100.00
52105;BME280;38103;42.776;23.112;2022-11-24T08:10:33;93285.88;;;4.55;100.00
52105;BME280;38103;42.776;23.112;2022-11-24T08:13:01;93284.25;;;4.54;100.00
52105;BME280;38103;42.776;23.112;2022-11-24T08:15:26;93283.03;;;4.57;100.00
52105;BME280;38103;42.776;23.112;2022-11-24T08:17:52;93291.09;;;4.55;100.00
52105;BME280;38103;42.776;23.112;2022-11-24T08:20:17;93287.09;;;4.53;100.00
52105;BME280;38103;42.776;23.112;2022-11-24T08:22:42;93292.00;;;4.42;100.00
52105;BME280;38103;42.776;23.112;2022-11-24T08:25:09;93294.22;;;4.39;100.00
52105;BME280;38103;42.776;23.112;2022-11-24T08:27:35;93291.84;;;4.37;100.00
52105;BME280;38103;42.776;23.112;2022-11-24T08:30:00;93295.34;;;4.24;100.00
52105;BME280;38103;42.776;23.112;2022-11-24T08:32:26;93298.94;;;4.30;100.00
52105;BME280;38103;42.776;23.112;2022-11-24T08:34:51;93295.69;;;4.34;100.00
52105;BME280;38103;42.776;23.112;2022-11-24T08:37:16;93292.06;;;4.35;100.00
52105;BME280;38103;42.776;23.112;2022-11-24T08:39:42;93299.31;;;4.33;100.00
52105;BME280;38103;42.776;23.112;2022-11-24T08:42:07;93304.69;;;4.39;100.00
52105;BME280;38103;42.776;23.112;2022-11-24T08:44:32;93306.91;;;4.42;100.00
52105;BME280;38103;42.776;23.112;2022-11-24T08:46:58;93312.56;;;4.39;100.00
52105;BME280;38103;42.776;23.112;2022-11-24T08:49:23;93302.19;;;4.25;100.00
52105;BME280;38103;42.776;23.112;2022-11-24T08:51:49;93310.53;;;4.41;100.00
52105;BME280;38103;42.776;23.112;2022-11-24T08:54:16;93316.28;;;4.24;100.00
52105;BME280;38103;42.776;23.112;2022-11-24T08:56:43;93309.00;;;4.26;100.00
52105;BME280;38103;42.776;23.112;2022-11-24T08:59:11;93306.63;;;4.24;100.00
52105;BME280;38103;42.776;23.112;2022-11-24T09:01:37;93304.19;;;4.23;100.00
52105;BME280;38103;42.776;23.112;2022-11-24T09:04:02;93313.75;;;4.43;100.00
52105;BME280;38103;42.776;23.112;2022-11-24T09:06:28;93319.00;;;4.43;100.00
52105;BME280;38103;42.776;23.112;2022-11-24T09:08:56;93313.13;;;4.41;100.00
52105;BME280;38103;42.776;23.112;2022-11-24T09:11:22;93320.25;;;4.33;100.00
52105;BME280;38103;42.776;23.112;2022-11-24T09:13:48;93333.38;;;4.27;100.00
52105;BME280;38103;42.776;23.112;2022-11-24T09:16:22;93330.34;;;4.23;100.00
52105;BME280;38103;42.776;23.112;2022-11-24T09:19:03;93327.56;;;4.24;100.00
52105;BME280;38103;42.776;23.112;2022-11-24T09:21:30;93333.06;;;4.09;100.00
52105;BME280;38103;42.776;23.112;2022-11-24T09:23:56;93334.84;;;4.16;100.00
52105;BME280;38103;42.776;23.112;2022-11-24T09:26:27;93340.06;;;4.16;100.00
52105;BME280;38103;42.776;23.112;2022-11-24T09:28:54;93338.47;;;4.15;100.00
52105;BME280;38103;42.776;23.112;2022-11-24T09:31:22;93347.25;;;4.27;100.00
52105;BME280;38103;42.776;23.112;2022-11-24T09:33:47;93351.38;;;4.09;100.00
52105;BME280;38103;42.776;23.112;2022-11-24T09:36:13;93347.00;;;3.96;100.00
52105;BME280;38103;42.776;23.112;2022-11-24T09:38:39;93335.41;;;3.78;100.00
52105;BME280;38103;42.776;23.112;2022-11-24T09:44:07;93357.75;;;3.81;100.00
52105;BME280;38103;42.776;23.112;2022-11-24T09:46:57;93354.75;;;3.71;100.00
52105;BME280;38103;42.776;23.112;2022-11-24T09:51:56;93362.22;;;3.60;100.00
52105;BME280;38103;42.776;23.112;2022-11-24T09:54:25;93368.84;;;3.63;100.00
52105;BME280;38103;42.776;23.112;2022-11-24T09:56:54;93363.63;;;3.56;100.00
52105;BME280;38103;42.776;23.112;2022-11-24T09:59:23;93366.88;;;3.58;100.00
52105;BME280;38103;42.776;23.112;2022-11-24T10:01:50;93364.41;;;3.70;100.00
52105;BME280;38103;42.776;23.112;2022-11-24T10:04:35;93355.94;;;3.75;100.00
52105;BME280;38103;42.776;23.112;2022-11-24T10:07:11;93357.00;;;3.60;100.00
52105;BME280;38103;42.776;23.112;2022-11-24T10:25:58;93354.69;;;3.84;100.00
52105;BME280;38103;42.776;23.112;2022-11-24T10:28:39;93356.72;;;3.82;100.00
52105;BME280;38103;42.776;23.112;2022-11-24T10:33:55;93352.47;;;3.88;99.64
52105;BME280;38103;42.776;23.112;2022-11-24T10:39:22;93342.88;;;3.75;100.00
52105;BME280;38103;42.776;23.112;2022-11-24T10:44:34;93356.69;;;3.89;100.00
52105;BME280;38103;42.776;23.112;2022-11-24T10:46:59;93356.50;;;3.90;100.00
52105;BME280;38103;42.776;23.112;2022-11-24T10:49:28;93342.16;;;4.00;99.59
52105;BME280;38103;42.776;23.112;2022-11-24T10:52:04;93355.03;;;4.01;99.46
52105;BME280;38103;42.776;23.112;2022-11-24T10:54:32;93352.03;;;3.98;98.90
52105;BME280;38103;42.776;23.112;2022-11-24T10:56:59;93355.00;;;4.08;98.96
52105;BME280;38103;42.776;23.112;2022-11-24T10:59:35;93358.38;;;4.16;99.16
52105;BME280;38103;42.776;23.112;2022-11-24T11:02:01;93348.44;;;4.31;96.75
52105;BME280;38103;42.776;23.112;2022-11-24T11:04:34;93346.22;;;4.35;96.24
52105;BME280;38103;42.776;23.112;2022-11-24T11:07:20;93352.84;;;4.38;96.51
52105;BME280;38103;42.776;23.112;2022-11-24T11:09:47;93350.88;;;4.33;95.46
52105;BME280;38103;42.776;23.112;2022-11-24T11:12:23;93350.88;;;4.33;95.26
52105;BME280;38103;42.776;23.112;2022-11-24T11:14:51;93355.66;;;4.36;95.47
52105;BME280;38103;42.776;23.112;2022-11-24T11:17:43;93357.69;;;4.34;94.63
52105;BME280;38103;42.776;23.112;2022-11-24T11:20:24;93364.91;;;4.39;94.92
52105;BME280;38103;42.776;23.112;2022-11-24T11:22:51;93359.66;;;4.39;94.98
52105;BME280;38103;42.776;23.112;2022-11-24T11:25:23;93372.50;;;4.47;95.35
52105;BME280;38103;42.776;23.112;2022-11-24T11:28:27;93366.34;;;4.67;95.52
52105;BME280;38103;42.776;23.112;2022-11-24T11:33:28;93373.44;;;4.92;93.65
52105;BME280;38103;42.776;23.112;2022-11-24T11:35:55;93376.16;;;5.04;93.64
52105;BME280;38103;42.776;23.112;2022-11-24T11:38:23;93373.78;;;5.21;91.39
52105;BME280;38103;42.776;23.112;2022-11-24T11:40:50;93347.72;;;5.27;90.76
52105;BME280;38103;42.776;23.112;2022-11-24T11:43:32;93373.63;;;5.61;89.42
52105;BME280;38103;42.776;23.112;2022-11-24T11:46:07;93375.88;;;5.76;86.33
52105;BME280;38103;42.776;23.112;2022-11-24T11:48:35;93367.72;;;5.84;85.41
52105;BME280;38103;42.776;23.112;2022-11-24T11:54:10;93382.06;;;5.63;84.67
52105;BME280;38103;42.776;23.112;2022-11-24T11:56:46;93387.66;;;5.47;85.81
52105;BME280;38103;42.776;23.112;2022-11-24T12:04:52;93401.75;;;5.28;87.56
52105;BME280;38103;42.776;23.112;2022-11-24T12:15:49;93404.34;;;5.53;86.67
52105;BME280;38103;42.776;23.112;2022-11-24T12:18:34;93402.81;;;5.45;84.91
52105;BME280;38103;42.776;23.112;2022-11-24T12:21:24;93406.59;;;5.50;85.26
52105;BME280;38103;42.776;23.112;2022-11-24T12:26:42;93420.44;;;5.57;86.37
52105;BME280;38103;42.776;23.112;2022-11-24T12:32:10;93423.81;;;5.64;85.76
52105;BME280;38103;42.776;23.112;2022-11-24T12:37:38;93425.25;;;5.60;85.19
52105;BME280;38103;42.776;23.112;2022-11-24T12:40:14;93423.72;;;5.52;85.22
52105;BME280;38103;42.776;23.112;2022-11-24T12:43:06;93427.06;;;5.41;84.95
52105;BME280;38103;42.776;23.112;2022-11-24T12:45:57;93419.56;;;5.19;86.14
52105;BME280;38103;42.776;23.112;2022-11-24T12:51:16;93411.84;;;5.24;87.35
52105;BME280;38103;42.776;23.112;2022-11-24T12:53:43;93417.50;;;5.28;86.94
52105;BME280;38103;42.776;23.112;2022-11-24T12:56:13;93421.44;;;5.37;86.85
52105;BME280;38103;42.776;23.112;2022-11-24T12:58:49;93423.03;;;5.38;86.69
52105;BME280;38103;42.776;23.112;2022-11-24T13:09:10;93387.63;;;5.29;83.66
52105;BME280;38103;42.776;23.112;2022-11-24T13:11:44;93436.06;;;5.70;82.59
52105;BME280;38103;42.776;23.112;2022-11-24T13:14:27;93414.31;;;5.44;82.07
52105;BME280;38103;42.776;23.112;2022-11-24T13:16:57;93390.09;;;5.23;81.76
52105;BME280;38103;42.776;23.112;2022-11-24T13:19:24;93443.69;;;5.53;82.03
52105;BME280;38103;42.776;23.112;2022-11-24T13:22:00;93441.88;;;5.54;82.50
52105;BME280;38103;42.776;23.112;2022-11-24T13:24:28;93442.50;;;5.49;81.93
52105;BME280;38103;42.776;23.112;2022-11-24T13:27:22;93435.69;;;5.41;81.89
52105;BME280;38103;42.776;23.112;2022-11-24T13:29:51;93442.13;;;5.45;82.90
52105;BME280;38103;42.776;23.112;2022-11-24T13:39:53;93445.19;;;5.42;81.97
52105;BME280;38103;42.776;23.112;2022-11-24T13:42:20;93444.34;;;5.48;82.28
52105;BME280;38103;42.776;23.112;2022-11-24T14:00:13;93451.47;;;5.60;80.29
52105;BME280;38103;42.776;23.112;2022-11-24T14:02:42;93457.16;;;5.57;80.62
52105;BME280;38103;42.776;23.112;2022-11-24T14:05:12;93451.91;;;5.57;80.88
52105;BME280;38103;42.776;23.112;2022-11-24T14:07:40;93459.03;;;5.50;80.78
52105;BME280;38103;42.776;23.112;2022-11-24T14:10:17;93460.50;;;5.45;81.76
52105;BME280;38103;42.776;23.112;2022-11-24T14:12:44;93459.69;;;5.45;81.48
52105;BME280;38103;42.776;23.112;2022-11-24T14:15:24;93462.47;;;5.50;81.58
52105;BME280;38103;42.776;23.112;2022-11-24T14:17:51;93467.78;;;5.43;81.49
52105;BME280;38103;42.776;23.112;2022-11-24T14:20:25;93466.47;;;5.53;81.73
52105;BME280;38103;42.776;23.112;2022-11-24T14:22:51;93460.38;;;5.59;80.98
52105;BME280;38103;42.776;23.112;2022-11-24T14:25:25;93464.81;;;5.58;81.28
52105;BME280;38103;42.776;23.112;2022-11-24T14:27:52;93465.19;;;5.62;80.93
52105;BME280;38103;42.776;23.112;2022-11-24T14:30:20;93461.97;;;5.60;80.99
52105;BME280;38103;42.776;23.112;2022-11-24T14:32:55;93461.56;;;5.63;81.66
52105;BME280;38103;42.776;23.112;2022-11-24T14:37:47;93467.47;;;5.52;84.58
52105;BME280;38103;42.776;23.112;2022-11-24T14:40:39;93462.53;;;5.43;85.51
52105;BME280;38103;42.776;23.112;2022-11-24T14:43:15;93463.91;;;5.20;87.06
52105;BME280;38103;42.776;23.112;2022-11-24T14:45:53;93467.94;;;5.23;87.47
52105;BME280;38103;42.776;23.112;2022-11-24T14:48:26;93476.25;;;5.13;88.00
52105;BME280;38103;42.776;23.112;2022-11-24T14:50:52;93484.09;;;5.13;88.02
52105;BME280;38103;42.776;23.112;2022-11-24T14:53:21;93464.00;;;5.07;88.39
52105;BME280;38103;42.776;23.112;2022-11-24T14:56:05;93482.53;;;5.05;88.97